Time;durP1;ratioP1;P1;durP2;ratioP2;P2;SDS_P1;SDS_P2;PMS_P1;PMS_P2;Temp;Humidity;BMP_temperature;BMP_pressure;BME280_temperature;BME280_humidity;BME280_pressure;Samples;Min_cycle;Max_cycle;Signal;HPM_P1;HPM_P2
2023/05/14 00:01:40;;;;;;;19.67;10.50;;;;;;;9.48;100.00;102143.06;4977760;28;20079;-73
2023/05/14 00:04:24;;;;;;;16.80;9.70;;;;;;;9.49;100.00;102143.97;4978160;28;20473;-73
2023/05/14 00:07:08;;;;;;;16.75;9.13;;;;;;;9.51;100.00;102155.38;4974370;28;20520;-74
2023/05/14 00:09:52;;;;;;;16.58;9.25;;;;;;;9.51;100.00;102139.50;4978574;28;20548;-73
2023/05/14 00:12:36;;;;;;;19.73;9.63;;;;;;;9.51;100.00;102139.50;4976578;28;20084;-73
2023/05/14 00:15:21;;;;;;;17.17;8.73;;;;;;;9.51;100.00;102135.09;4979643;28;20049;-74
2023/05/14 00:18:05;;;;;;;17.70;8.85;;;;;;;9.50;100.00;102127.19;4980558;28;20053;-74
2023/05/14 00:20:53;;;;;;;16.83;8.98;;;;;;;9.50;100.00;102127.19;4982797;28;20045;-74
2023/05/14 00:23:37;;;;;;;14.73;8.95;;;;;;;9.45;100.00;102129.94;4980608;28;20052;-74
2023/05/14 00:26:22;;;;;;;14.35;8.18;;;;;;;9.44;100.00;102122.03;4981262;28;20158;-74
2023/05/14 00:29:06;;;;;;;13.32;8.50;;;;;;;9.41;100.00;102122.09;4981207;28;20177;-73
2023/05/14 00:31:50;;;;;;;15.27;8.05;;;;;;;9.42;100.00;102116.75;4978015;28;20041;-74
2023/05/14 00:34:34;;;;;;;14.05;7.85;;;;;;;9.42;100.00;102114.13;4981445;28;20100;-74
2023/05/14 00:37:18;;;;;;;14.05;8.07;;;;;;;9.41;100.00;102114.16;4979828;28;20183;-74
2023/05/14 00:40:03;;;;;;;13.48;8.02;;;;;;;9.38;100.00;102113.31;4978213;28;20732;-74
2023/05/14 00:42:47;;;;;;;14.02;7.82;;;;;;;9.36;100.00;102107.19;4981680;28;20105;-74
2023/05/14 00:45:31;;;;;;;13.45;7.93;;;;;;;9.34;100.00;102103.72;4982043;28;20598;-74
2023/05/14 00:48:15;;;;;;;13.30;7.30;;;;;;;9.32;100.00;102102.00;4977072;28;20414;-74
2023/05/14 00:50:59;;;;;;;13.10;7.50;;;;;;;9.32;100.00;102102.00;4982493;28;20056;-74
2023/05/14 00:53:45;;;;;;;11.95;7.07;;;;;;;9.30;100.00;102099.38;4982588;28;20149;-74
2023/05/14 00:56:29;;;;;;;13.15;7.40;;;;;;;9.29;100.00;102089.72;4979410;28;20089;-74
2023/05/14 00:59:13;;;;;;;11.32;7.18;;;;;;;9.29;100.00;102097.66;4968455;28;20040;-74
2023/05/14 01:02:00;;;;;;;11.38;6.53;;;;;;;9.27;100.00;102088.00;4981843;28;20169;-74
2023/05/14 01:04:44;;;;;;;14.45;7.07;;;;;;;9.26;100.00;102091.56;4980067;28;20057;-74
2023/05/14 01:07:39;;;;;;;14.35;7.40;;;;;;;9.25;100.00;102090.66;4982165;28;20077;-74
2023/05/14 01:10:26;;;;;;;11.23;7.03;;;;;;;9.23;100.00;102089.84;4982675;28;20040;-74
2023/05/14 01:13:21;;;;;;;13.32;7.22;;;;;;;9.22;100.00;102077.53;4977887;28;20068;-74
2023/05/14 01:16:11;;;;;;;15.77;7.70;;;;;;;9.20;100.00;102076.66;4979844;28;20099;-74
2023/05/14 01:18:56;;;;;;;11.57;7.10;;;;;;;9.19;100.00;102078.47;4981757;28;20180;-74
2023/05/14 01:21:42;;;;;;;11.15;6.93;;;;;;;9.16;100.00;102081.16;4982738;28;20048;-74
2023/05/14 01:24:26;;;;;;;13.38;7.70;;;;;;;9.16;100.00;102089.06;4981885;28;20734;-74
2023/05/14 01:27:22;;;;;;;15.30;8.20;;;;;;;9.15;100.00;102089.13;4980395;28;20048;-74
2023/05/14 01:30:09;;;;;;;13.07;7.45;;;;;;;9.18;100.00;102078.47;4975977;28;20624;-73
2023/05/14 01:32:55;;;;;;;14.27;7.57;;;;;;;9.20;100.00;102076.66;4982055;28;20049;-74
2023/05/14 01:35:40;;;;;;;13.05;7.15;;;;;;;9.22;100.00;102080.16;4979919;28;20161;-74
2023/05/14 01:38:24;;;;;;;13.85;7.20;;;;;;;9.22;100.00;102074.88;4979846;28;20053;-74
2023/05/14 01:41:10;;;;;;;11.95;7.40;;;;;;;9.21;100.00;102074.00;4979540;28;20136;-74
2023/05/14 01:43:54;;;;;;;13.05;6.03;;;;;;;9.22;100.00;102075.75;4966756;28;20053;-74
2023/05/14 01:46:39;;;;;;;11.55;6.82;;;;;;;9.23;100.00;102073.97;4977431;28;20048;-74
2023/05/14 01:49:23;;;;;;;18.50;7.55;;;;;;;9.24;100.00;102073.97;4981612;28;20053;-74
2023/05/14 01:52:08;;;;;;;14.45;7.93;;;;;;;9.25;100.00;102074.81;4982084;28;20677;-75
2023/05/14 01:54:52;;;;;;;19.30;8.18;;;;;;;9.26;100.00;102063.34;4977006;28;20049;-74
2023/05/14 01:57:36;;;;;;;17.33;8.90;;;;;;;9.30;100.00;102058.84;4980195;28;20246;-74
2023/05/14 02:00:23;;;;;;;16.98;8.65;;;;;;;9.29;100.00;102055.34;4982013;28;20130;-74
2023/05/14 02:03:07;;;;;;;17.27;9.18;;;;;;;9.32;100.00;102054.44;4992161;28;20133;-73
2023/05/14 02:05:52;;;;;;;18.88;9.60;;;;;;;9.31;100.00;102056.19;4980642;28;20134;-73
2023/05/14 02:08:36;;;;;;;17.70;9.02;;;;;;;9.31;100.00;102058.84;4992909;28;21360;-74
2023/05/14 02:11:20;;;;;;;19.05;9.63;;;;;;;9.34;100.00;102052.63;4978644;28;20053;-74
2023/05/14 02:14:04;;;;;;;16.35;9.13;;;;;;;9.32;100.00;102049.16;4978468;28;20682;-74
2023/05/14 02:16:50;;;;;;;17.30;9.45;;;;;;;9.29;100.00;102044.78;4981042;28;20179;-74
2023/05/14 02:19:34;;;;;;;16.23;8.15;;;;;;;9.29;100.00;102058.00;4964834;28;21042;-74
2023/05/14 02:22:18;;;;;;;18.77;8.80;;;;;;;9.28;100.00;102053.63;4980308;28;20092;-74
2023/05/14 02:25:02;;;;;;;18.50;8.65;;;;;;;9.28;100.00;102050.09;4978548;28;20696;-75
2023/05/14 02:27:47;;;;;;;17.20;8.60;;;;;;;9.26;100.00;102042.19;4974141;28;20288;-74
2023/05/14 02:30:31;;;;;;;15.15;8.35;;;;;;;9.24;100.00;102036.97;4979033;28;20104;-74
2023/05/14 02:33:16;;;;;;;17.42;8.73;;;;;;;9.22;100.00;102033.47;4977293;28;20136;-73
2023/05/14 02:36:00;;;;;;;12.07;7.88;;;;;;;9.24;100.00;102033.44;4978252;28;20476;-74
2023/05/14 02:38:44;;;;;;;17.00;7.65;;;;;;;9.23;100.00;102029.06;4980184;28;20053;-74
2023/05/14 02:41:28;;;;;;;16.67;7.93;;;;;;;9.21;100.00;102025.59;4979899;28;20567;-74
2023/05/14 02:44:12;;;;;;;20.40;8.32;;;;;;;9.22;100.00;102024.69;4978117;28;20052;-74
2023/05/14 02:46:56;;;;;;;18.90;8.10;;;;;;;9.21;100.00;102022.94;4978420;28;21480;-74
2023/05/14 02:49:40;;;;;;;15.48;8.02;;;;;;;9.20;100.00;102016.78;4980726;28;20137;-73
2023/05/14 02:52:24;;;;;;;16.55;7.88;;;;;;;9.18;100.00;102012.41;4979528;28;20057;-74
2023/05/14 02:55:08;;;;;;;15.38;7.82;;;;;;;9.16;100.00;102009.81;4979064;28;20093;-74
2023/05/14 02:57:53;;;;;;;15.95;8.25;;;;;;;9.17;100.00;102018.63;4978555;28;20057;-74
2023/05/14 03:00:37;;;;;;;16.88;8.05;;;;;;;9.16;100.00;102017.72;4978699;28;21237;-74
2023/05/14 03:03:21;;;;;;;15.10;7.95;;;;;;;9.16;100.00;102024.81;4980917;28;20580;-74
2023/05/14 03:06:05;;;;;;;16.45;8.10;;;;;;;9.15;100.00;102023.91;4979710;28;20089;-74
2023/05/14 03:08:49;;;;;;;14.43;8.18;;;;;;;9.15;100.00;102020.44;4979561;28;20125;-74
2023/05/14 03:11:34;;;;;;;15.60;7.95;;;;;;;9.14;100.00;102013.41;4980381;28;20360;-74
2023/05/14 03:14:18;;;;;;;15.65;8.25;;;;;;;9.14;100.00;102013.41;4979165;28;20636;-74
2023/05/14 03:17:05;;;;;;;19.30;8.48;;;;;;;9.15;100.00;102007.22;4977698;28;20139;-74
2023/05/14 03:19:49;;;;;;;18.08;9.00;;;;;;;9.14;100.00;102005.47;4977500;28;20151;-74
2023/05/14 03:22:33;;;;;;;15.05;8.80;;;;;;;9.17;100.00;102015.97;4978228;28;20081;-74
2023/05/14 03:25:18;;;;;;;18.90;9.82;;;;;;;9.17;100.00;102019.50;4976798;28;20112;-74
2023/05/14 03:28:02;;;;;;;20.05;9.38;;;;;;;9.18;100.00;102017.72;4975740;28;20056;-74
2023/05/14 03:30:47;;;;;;;16.25;9.27;;;;;;;9.20;100.00;102013.25;4968135;28;20052;-74
2023/05/14 03:33:31;;;;;;;19.38;9.57;;;;;;;9.21;100.00;102012.38;4976859;28;20056;-74
2023/05/14 03:36:15;;;;;;;21.20;9.88;;;;;;;9.24;100.00;102012.28;4977036;28;20104;-74
2023/05/14 03:38:59;;;;;;;20.00;9.95;;;;;;;9.25;100.00;102008.75;4979667;28;20096;-74
2023/05/14 03:41:43;;;;;;;20.08;9.10;;;;;;;9.26;100.00;102002.56;4976034;28;20049;-74
2023/05/14 03:44:27;;;;;;;16.05;9.13;;;;;;;9.28;100.00;102003.41;4977151;28;20658;-74
2023/05/14 03:47:11;;;;;;;20.83;9.32;;;;;;;9.30;100.00;101998.06;4978235;28;21247;-74
2023/05/14 03:49:55;;;;;;;23.13;9.32;;;;;;;9.31;100.00;101998.03;4975490;28;20049;-74
2023/05/14 03:52:40;;;;;;;17.17;9.07;;;;;;;9.33;100.00;101988.31;4978453;28;20077;-75
2023/05/14 03:55:24;;;;;;;16.35;8.45;;;;;;;9.38;100.00;101996.16;4975943;28;20103;-74
2023/05/14 03:58:12;;;;;;;17.27;8.32;;;;;;;9.44;100.00;101985.44;4979388;28;20056;-74
2023/05/14 04:00:57;;;;;;;15.27;8.65;;;;;;;9.49;100.00;101972.97;4977890;28;20096;-74
2023/05/14 04:03:42;;;;;;;14.90;8.23;;;;;;;9.51;100.00;101970.31;4978261;28;20053;-74
2023/05/14 04:06:26;;;;;;;15.50;8.15;;;;;;;9.56;100.00;101973.72;4974318;28;20796;-74
2023/05/14 04:09:10;;;;;;;17.30;7.80;;;;;;;9.61;100.00;102006.22;4978692;28;20103;-74
2023/05/14 04:11:54;;;;;;;18.77;8.63;;;;;;;9.64;100.00;101986.75;4977806;28;20109;-74
2023/05/14 04:14:38;;;;;;;14.60;8.38;;;;;;;9.62;100.00;101981.50;4975127;28;20583;-73
2023/05/14 04:17:22;;;;;;;14.10;8.55;;;;;;;9.63;100.00;102012.31;4976797;28;20056;-74
2023/05/14 04:20:07;;;;;;;15.55;7.88;;;;;;;9.63;100.00;102007.03;4975557;28;20080;-74
2023/05/14 04:22:51;;;;;;;14.75;8.35;;;;;;;9.64;100.00;102006.13;4978284;28;20041;-74
2023/05/14 04:25:35;;;;;;;17.27;8.15;;;;;;;9.67;100.00;102002.56;4977670;28;20488;-74
2023/05/14 04:28:20;;;;;;;17.08;8.75;;;;;;;9.70;100.00;102001.63;4976888;28;21132;-74
2023/05/14 04:31:04;;;;;;;19.90;8.75;;;;;;;9.71;100.00;101988.38;4978372;28;20465;-74
2023/05/14 04:33:48;;;;;;;15.32;8.10;;;;;;;9.75;100.00;101999.75;4977458;28;20093;-74
2023/05/14 04:36:32;;;;;;;12.68;7.55;;;;;;;9.77;100.00;101992.63;4976141;28;20151;-74
2023/05/14 04:39:17;;;;;;;18.92;8.77;;;;;;;9.79;100.00;102006.69;4978404;28;20172;-74
2023/05/14 04:42:02;;;;;;;19.42;8.95;;;;;;;9.81;100.00;101996.91;4979119;28;20053;-74
2023/05/14 04:44:48;;;;;;;22.75;9.57;;;;;;;9.85;100.00;101995.06;4975435;28;20065;-74
2023/05/14 04:47:33;;;;;;;19.83;9.27;;;;;;;9.85;100.00;101993.31;4976097;28;20057;-75
2023/05/14 04:50:17;;;;;;;15.95;8.82;;;;;;;9.87;100.00;101994.13;4977532;28;20077;-74
2023/05/14 04:53:02;;;;;;;19.60;8.88;;;;;;;9.88;100.00;101987.06;4974800;28;20567;-74
2023/05/14 04:55:46;;;;;;;15.93;8.35;;;;;;;9.88;100.00;101984.44;4975820;28;20061;-74
2023/05/14 04:58:31;;;;;;;18.88;8.55;;;;;;;9.88;100.00;101987.06;4977457;28;20107;-74
2023/05/14 05:01:15;;;;;;;17.83;8.68;;;;;;;9.89;100.00;101986.16;4977392;28;20116;-74
2023/05/14 05:03:59;;;;;;;16.08;8.32;;;;;;;9.90;100.00;101983.50;4979128;28;20076;-74
2023/05/14 05:06:43;;;;;;;17.08;8.60;;;;;;;9.94;100.00;101993.97;4977622;28;20104;-74
2023/05/14 05:09:27;;;;;;;18.70;8.15;;;;;;;9.94;100.00;101983.41;4978039;28;20140;-74
2023/05/14 05:12:14;;;;;;;15.88;7.57;;;;;;;9.96;100.00;101993.03;4992265;28;20185;-74
2023/05/14 05:14:58;;;;;;;14.43;8.23;;;;;;;9.98;100.00;101988.56;4980376;28;20581;-74
2023/05/14 05:17:42;;;;;;;14.82;7.80;;;;;;;10.02;100.00;101992.03;4979949;28;20142;-74
2023/05/14 05:20:27;;;;;;;15.55;8.45;;;;;;;10.08;100.00;101996.31;4980319;28;20863;-75
2023/05/14 05:23:11;;;;;;;17.30;8.52;;;;;;;10.10;100.00;101999.78;4985997;28;20165;-74
2023/05/14 05:25:55;;;;;;;16.27;7.95;;;;;;;10.12;100.00;102003.25;4979036;28;20053;-74
2023/05/14 05:28:42;;;;;;;24.20;8.63;;;;;;;10.15;100.00;102006.69;4980769;28;20137;-74
2023/05/14 05:31:29;;;;;;;17.88;8.35;;;;;;;10.17;100.00;102012.81;4980908;28;20137;-74
2023/05/14 05:34:13;;;;;;;15.00;8.07;;;;;;;10.22;100.00;102006.53;4981701;28;20561;-74
2023/05/14 05:36:57;;;;;;;20.58;8.45;;;;;;;10.26;100.00;102000.25;4982003;28;20493;-74
2023/05/14 05:39:41;;;;;;;19.85;8.70;;;;;;;10.29;100.00;102000.16;4980291;28;20148;-75
2023/05/14 05:42:26;;;;;;;13.10;7.78;;;;;;;10.35;100.00;102007.09;4990638;28;20544;-75
2023/05/14 05:45:10;;;;;;;17.38;8.45;;;;;;;10.39;100.00;102006.97;4982156;28;20261;-74
2023/05/14 05:47:54;;;;;;;20.13;8.48;;;;;;;10.43;100.00;101998.09;4979290;28;20056;-75
2023/05/14 05:50:38;;;;;;;17.90;9.32;;;;;;;10.52;100.00;101998.75;4978640;28;20578;-74
2023/05/14 05:53:22;;;;;;;13.23;8.13;;;;;;;10.62;100.00;102005.50;4981232;28;20053;-74
2023/05/14 05:56:06;;;;;;;17.80;9.13;;;;;;;10.70;100.00;102006.19;4981680;28;21347;-75
2023/05/14 05:58:50;;;;;;;19.25;9.95;;;;;;;10.79;100.00;102007.69;4980170;28;20108;-76
2023/05/14 06:01:35;;;;;;;21.10;9.70;;;;;;;10.80;100.00;102001.53;4979336;28;20123;-73
2023/05/14 06:04:21;;;;;;;19.70;9.90;;;;;;;10.90;100.00;102003.91;4979808;28;20625;-74
2023/05/14 06:07:05;;;;;;;16.65;9.50;;;;;;;11.03;100.00;102002.63;4976057;28;20067;-74
2023/05/14 06:09:49;;;;;;;17.92;10.07;;;;;;;11.14;100.00;101999.66;4980058;28;20128;-75
2023/05/14 06:12:33;;;;;;;17.10;9.18;;;;;;;11.24;100.00;102003.75;4979398;28;20112;-74
2023/05/14 06:15:17;;;;;;;13.93;8.23;;;;;;;11.28;100.00;102008.06;4976932;28;20264;-75
2023/05/14 06:18:01;;;;;;;12.68;8.05;;;;;;;11.33;100.00;102007.09;4981248;28;20165;-74
2023/05/14 06:20:45;;;;;;;15.60;8.73;;;;;;;11.39;100.00;101998.94;4980041;28;20127;-74
2023/05/14 06:23:29;;;;;;;14.30;6.95;;;;;;;11.46;100.00;102000.50;4977794;28;20077;-74
2023/05/14 06:26:13;;;;;;;10.45;6.93;;;;;;;11.52;100.00;101997.66;4980848;28;20041;-75
2023/05/14 06:28:58;;;;;;;12.75;8.15;;;;;;;11.61;100.00;101998.28;4994055;28;20072;-75
2023/05/14 06:31:42;;;;;;;13.05;7.28;;;;;;;11.70;100.00;102005.94;4982303;28;20060;-74
2023/05/14 06:34:26;;;;;;;12.18;7.00;;;;;;;11.81;100.00;102001.16;4979804;28;20066;-75
2023/05/14 06:37:11;;;;;;;11.38;6.63;;;;;;;11.91;100.00;102006.16;4979695;28;20493;-74
2023/05/14 06:39:55;;;;;;;11.32;6.35;;;;;;;11.97;100.00;101995.34;4978168;28;20820;-74
2023/05/14 06:42:39;;;;;;;11.98;7.07;;;;;;;12.08;100.00;102003.88;4980626;28;20120;-74
2023/05/14 06:45:22;;;;;;;8.45;5.88;;;;;;;12.26;100.00;102003.28;4981680;28;20053;-74
2023/05/14 06:48:08;;;;;;;14.02;6.45;;;;;;;12.37;100.00;102001.16;4977377;28;20052;-75
2023/05/14 06:50:53;;;;;;;7.72;5.45;;;;;;;12.44;100.00;101994.69;4978918;28;20077;-74
2023/05/14 06:53:36;;;;;;;10.90;5.70;;;;;;;12.59;100.00;101997.72;4970110;28;20069;-75
2023/05/14 06:56:21;;;;;;;11.88;5.72;;;;;;;12.69;100.00;101993.81;4975844;28;20153;-75
2023/05/14 06:59:05;;;;;;;7.30;5.45;;;;;;;12.88;100.00;101995.81;4977394;28;20076;-75
2023/05/14 07:01:49;;;;;;;10.52;4.85;;;;;;;12.96;100.00;101984.91;4978080;28;20069;-75
2023/05/14 07:04:35;;;;;;;11.60;5.05;;;;;;;13.02;100.00;101992.66;4977480;28;20138;-74
2023/05/14 07:07:20;;;;;;;8.38;4.93;;;;;;;13.04;100.00;101980.16;4979494;28;20033;-75
2023/05/14 07:10:05;;;;;;;9.32;5.70;;;;;;;13.09;100.00;101986.16;4969740;28;20781;-75
2023/05/14 07:12:52;;;;;;;9.27;4.90;;;;;;;13.16;100.00;101971.72;4976826;28;20401;-75
2023/05/14 07:15:36;;;;;;;9.05;4.30;;;;;;;13.22;100.00;101970.59;4978759;28;20080;-75
2023/05/14 07:18:21;;;;;;;7.50;4.22;;;;;;;13.26;100.00;101969.56;4979133;28;20052;-76
2023/05/14 07:21:05;;;;;;;9.77;4.72;;;;;;;13.42;100.00;101977.78;4978700;28;20057;-74
2023/05/14 07:23:49;;;;;;;8.43;4.43;;;;;;;13.60;100.00;101979.81;4979171;28;21322;-74
2023/05/14 07:26:34;;;;;;;6.60;4.50;;;;;;;13.73;100.00;101980.19;4977030;28;20108;-74
2023/05/14 07:29:18;;;;;;;6.63;4.43;;;;;;;13.85;100.00;101974.38;4974718;28;20065;-75
2023/05/14 07:32:02;;;;;;;8.60;4.40;;;;;;;13.97;100.00;101978.31;4978097;28;20056;-74
2023/05/14 07:34:46;;;;;;;7.28;4.78;;;;;;;14.13;100.00;101974.06;4978687;28;20201;-75
2023/05/14 07:37:30;;;;;;;11.65;4.63;;;;;;;14.24;100.00;101970.97;4979211;28;20494;-74
2023/05/14 07:40:15;;;;;;;8.93;4.90;;;;;;;14.40;100.00;101975.63;4977087;28;20049;-75
2023/05/14 07:42:59;;;;;;;7.85;4.70;;;;;;;14.52;100.00;101974.19;4981854;28;20581;-74
2023/05/14 07:45:44;;;;;;;9.30;4.50;;;;;;;14.65;100.00;101974.50;4978755;28;20255;-75
2023/05/14 07:48:29;;;;;;;6.05;4.13;;;;;;;14.73;100.00;101974.19;4979590;28;20127;-74
2023/05/14 07:51:23;;;;;;;4.90;4.15;;;;;;;14.79;100.00;101972.16;4973719;28;20807;-75
2023/05/14 07:54:07;;;;;;;6.43;3.97;;;;;;;14.83;100.00;101977.31;4977504;28;20060;-75
2023/05/14 07:56:52;;;;;;;8.50;4.07;;;;;;;14.69;100.00;101980.56;4979260;28;20057;-75
2023/05/14 07:59:36;;;;;;;7.10;3.88;;;;;;;14.65;100.00;101969.19;4959959;28;20064;-76
2023/05/14 08:02:20;;;;;;;9.80;4.45;;;;;;;14.71;100.00;101973.38;4976165;28;20600;-74
2023/05/14 08:05:05;;;;;;;7.03;4.50;;;;;;;14.80;100.00;101963.22;4977892;28;20092;-74
2023/05/14 08:07:49;;;;;;;8.18;4.30;;;;;;;14.87;100.00;101965.59;4973788;28;20037;-74
2023/05/14 08:10:33;;;;;;;10.57;4.28;;;;;;;14.92;100.00;101966.22;4990654;28;20088;-76
2023/05/14 08:13:17;;;;;;;6.90;4.70;;;;;;;14.98;100.00;101967.75;4978026;28;20053;-74
2023/05/14 08:16:02;;;;;;;9.57;4.70;;;;;;;15.03;100.00;101965.75;4975433;28;20090;-74
2023/05/14 08:18:46;;;;;;;7.15;4.18;;;;;;;15.09;100.00;101956.59;4977519;28;20072;-75
2023/05/14 08:21:30;;;;;;;7.82;4.35;;;;;;;15.05;100.00;101972.72;4977718;28;20057;-74
2023/05/14 08:24:14;;;;;;;6.55;4.40;;;;;;;15.05;100.00;101966.53;4979404;28;20056;-75
2023/05/14 08:26:58;;;;;;;7.45;4.72;;;;;;;15.07;100.00;101962.88;4977160;28;20060;-75
2023/05/14 08:29:42;;;;;;;8.00;4.10;;;;;;;15.07;100.00;101962.88;4978037;28;20076;-74
2023/05/14 08:32:26;;;;;;;7.55;4.65;;;;;;;15.01;100.00;101962.28;4976192;28;20093;-75
2023/05/14 08:35:10;;;;;;;9.95;4.80;;;;;;;14.99;100.00;101962.34;4979476;28;20433;-75
2023/05/14 08:37:55;;;;;;;5.35;4.65;;;;;;;15.03;100.00;101966.59;4978183;28;20129;-74
2023/05/14 08:40:40;;;;;;;8.95;5.10;;;;;;;15.06;100.00;101960.25;4966815;28;20057;-74
2023/05/14 08:43:44;;;;;;;7.05;4.88;;;;;;;15.15;100.00;101950.97;4980350;28;20096;-75
2023/05/14 08:46:29;;;;;;;8.60;5.00;;;;;;;15.31;100.00;101951.13;4981013;28;20052;-73
2023/05/14 08:49:52;;;;;;;7.82;4.88;;;;;;;15.37;100.00;101949.94;4977196;28;20080;-74
2023/05/14 08:52:37;;;;;;;9.27;4.47;;;;;;;15.42;100.00;101950.59;4980955;28;20065;-74
2023/05/14 08:55:21;;;;;;;9.18;4.45;;;;;;;15.36;100.00;101948.22;4982921;28;20401;-75
2023/05/14 08:58:05;;;;;;;8.35;4.68;;;;;;;15.42;100.00;101945.25;4969142;28;20045;-75
2023/05/14 09:00:49;;;;;;;9.38;4.72;;;;;;;15.59;100.00;101945.28;4978725;28;20104;-74
2023/05/14 09:03:35;;;;;;;8.10;5.00;;;;;;;15.71;100.00;101943.81;4979162;28;20057;-74
2023/05/14 09:06:20;;;;;;;8.60;4.88;;;;;;;15.83;100.00;101937.00;4969418;28;20045;-74
2023/05/14 09:09:05;;;;;;;5.72;4.45;;;;;;;15.95;100.00;101938.22;4985672;28;20056;-75
2023/05/14 09:11:50;;;;;;;9.32;4.85;;;;;;;16.01;100.00;101935.22;4979856;28;20049;-74
2023/05/14 09:14:34;;;;;;;10.32;5.20;;;;;;;16.05;100.00;101930.59;4982343;28;20496;-74
2023/05/14 09:17:19;;;;;;;11.13;4.70;;;;;;;16.10;100.00;101931.22;4981459;28;20105;-74
2023/05/14 09:20:03;;;;;;;9.55;5.22;;;;;;;16.18;100.00;101936.16;4981338;28;20053;-75
2023/05/14 09:22:52;;;;;;;8.43;4.85;;;;;;;16.21;100.00;101932.47;4977458;28;20115;-76
2023/05/14 09:25:36;;;;;;;6.47;4.60;;;;;;;16.20;100.00;101931.63;4979662;28;20389;-74
2023/05/14 09:28:26;;;;;;;8.93;4.53;;;;;;;16.20;100.00;101936.97;4979871;28;20065;-75
2023/05/14 09:31:10;;;;;;;9.20;4.95;;;;;;;16.13;100.00;101925.72;4978449;28;20129;-74
2023/05/14 09:33:55;;;;;;;8.57;5.28;;;;;;;16.24;100.00;101927.81;4991993;28;20064;-74
2023/05/14 09:36:41;;;;;;;8.25;4.90;;;;;;;16.40;100.00;101917.19;4980304;28;20574;-74
2023/05/14 09:39:26;;;;;;;9.57;5.18;;;;;;;16.45;100.00;101916.94;4980030;28;20069;-74
2023/05/14 09:42:11;;;;;;;6.13;4.68;;;;;;;16.58;100.00;101909.13;4991364;28;20569;-73
2023/05/14 09:44:55;;;;;;;5.70;4.82;;;;;;;16.68;100.00;101907.69;4979892;28;20057;-73
2023/05/14 09:47:42;;;;;;;5.60;4.85;;;;;;;16.76;100.00;101899.25;4980019;28;20052;-74
2023/05/14 09:50:29;;;;;;;7.15;4.85;;;;;;;16.92;100.00;101899.25;4978307;28;20049;-74
2023/05/14 09:53:16;;;;;;;9.10;4.80;;;;;;;17.02;100.00;101907.66;4978570;28;20076;-74
2023/05/14 09:56:04;;;;;;;8.55;4.78;;;;;;;17.17;100.00;101905.91;4978641;28;20105;-75
2023/05/14 09:58:50;;;;;;;6.45;5.00;;;;;;;17.26;100.00;101901.88;4979015;28;20180;-74
2023/05/14 10:01:35;;;;;;;7.57;5.22;;;;;;;17.33;100.00;101900.56;4978516;28;20069;-75
2023/05/14 10:04:19;;;;;;;7.80;5.20;;;;;;;17.23;100.00;101892.19;4979726;28;20588;-74
2023/05/14 10:07:03;;;;;;;7.22;4.38;;;;;;;17.18;100.00;101888.06;4980033;28;20126;-74
2023/05/14 10:09:48;;;;;;;9.57;5.05;;;;;;;17.20;100.00;101896.84;4982347;28;20516;-74
2023/05/14 10:12:33;;;;;;;9.02;5.30;;;;;;;17.23;100.00;101889.53;4976438;28;20176;-75
2023/05/14 10:15:25;;;;;;;8.70;5.40;;;;;;;17.15;100.00;101893.59;4993114;28;20045;-75
2023/05/14 10:18:12;;;;;;;8.60;4.60;;;;;;;17.11;100.00;101900.94;4978689;28;20056;-74
2023/05/14 10:21:03;;;;;;;6.45;4.80;;;;;;;17.19;100.00;101892.47;4977984;28;20041;-75
2023/05/14 10:23:48;;;;;;;9.18;4.75;;;;;;;17.24;100.00;101890.41;4978170;28;20072;-76
2023/05/14 10:26:39;;;;;;;7.68;5.38;;;;;;;17.27;100.00;101898.22;4977854;28;20061;-76
2023/05/14 10:29:33;;;;;;;8.57;5.10;;;;;;;17.14;100.00;101898.09;4975635;28;20122;-74
2023/05/14 10:32:19;;;;;;;8.23;5.18;;;;;;;17.19;100.00;101884.44;4978084;28;20560;-74
2023/05/14 10:35:19;;;;;;;9.10;4.60;;;;;;;17.34;100.00;101883.53;4979963;28;20152;-74
2023/05/14 10:38:07;;;;;;;7.88;4.70;;;;;;;17.47;100.00;101878.38;4981357;28;20513;-74
2023/05/14 10:41:01;;;;;;;6.80;4.78;;;;;;;17.41;100.00;101873.38;4978528;28;20052;-74
2023/05/14 10:43:46;;;;;;;6.90;5.15;;;;;;;17.46;100.00;101863.25;4990550;28;20049;-73
2023/05/14 10:46:30;;;;;;;7.25;4.93;;;;;;;17.53;100.00;101871.78;4980956;28;21190;-74
2023/05/14 10:49:16;;;;;;;6.95;5.00;;;;;;;17.58;100.00;101866.16;4977923;28;21024;-74
2023/05/14 10:52:00;;;;;;;6.55;5.30;;;;;;;17.62;100.00;101868.56;4965631;28;20045;-74
2023/05/14 10:54:53;;;;;;;7.13;5.47;;;;;;;17.68;100.00;101861.09;4976756;28;20088;-74
2023/05/14 10:57:38;;;;;;;7.87;5.87;;;;;;;17.75;100.00;101860.66;4975308;28;20139;-74
2023/05/14 11:00:33;;;;;;;7.50;5.28;;;;;;;17.77;100.00;101858.75;4979652;28;20056;-74
2023/05/14 11:03:18;;;;;;;8.90;5.90;;;;;;;17.88;100.00;101851.88;4977522;28;20728;-74
2023/05/14 11:06:02;;;;;;;7.55;5.72;;;;;;;17.82;100.00;101854.94;4978030;28;20065;-74
2023/05/14 11:08:49;;;;;;;9.07;6.10;;;;;;;17.78;100.00;101847.06;4976209;28;20060;-75
2023/05/14 11:11:34;;;;;;;10.48;6.40;;;;;;;17.91;100.00;101847.22;4976538;28;20778;-75
2023/05/14 11:14:18;;;;;;;8.68;6.45;;;;;;;17.95;100.00;101833.63;4978957;28;20454;-75
2023/05/14 11:17:02;;;;;;;13.40;6.00;;;;;;;17.90;100.00;101836.56;4979424;28;20130;-75
2023/05/14 11:19:46;;;;;;;8.25;5.97;;;;;;;17.97;100.00;101842.44;4978331;28;20115;-75
2023/05/14 11:22:30;;;;;;;8.20;5.80;;;;;;;18.11;100.00;101846.97;4978029;28;20049;-75
2023/05/14 11:25:15;;;;;;;9.13;4.95;;;;;;;18.17;100.00;101843.91;4978528;28;21106;-75
2023/05/14 11:27:59;;;;;;;7.13;5.00;;;;;;;18.21;100.00;101840.09;4976956;28;20053;-75
2023/05/14 11:30:45;;;;;;;6.50;5.10;;;;;;;18.18;100.00;101834.91;4985341;28;20100;-75
2023/05/14 11:33:29;;;;;;;7.57;5.50;;;;;;;18.12;100.00;101846.88;4975609;28;20080;-75
2023/05/14 11:36:13;;;;;;;7.63;5.50;;;;;;;18.13;100.00;101840.56;4973891;28;20626;-75
2023/05/14 11:38:57;;;;;;;8.40;5.28;;;;;;;18.09;100.00;101836.34;4976417;28;20045;-75
2023/05/14 11:41:44;;;;;;;7.82;5.35;;;;;;;18.11;100.00;101833.56;4973868;28;20057;-75
2023/05/14 11:44:29;;;;;;;7.75;5.15;;;;;;;18.11;100.00;101828.22;4974791;28;20543;-75
2023/05/14 11:47:14;;;;;;;7.78;5.55;;;;;;;18.16;100.00;101826.97;4975537;28;20433;-76
2023/05/14 11:50:01;;;;;;;8.50;5.93;;;;;;;18.16;100.00;101824.31;4973058;28;20049;-76
2023/05/14 11:52:49;;;;;;;10.63;5.70;;;;;;;18.12;100.00;101813.84;4977052;28;20041;-75
2023/05/14 11:55:36;;;;;;;9.65;6.28;;;;;;;18.18;100.00;101810.78;4976569;28;20935;-76
2023/05/14 11:58:24;;;;;;;7.63;5.43;;;;;;;18.22;100.00;101815.00;4976857;28;20136;-74
2023/05/14 12:01:12;;;;;;;8.65;5.60;;;;;;;18.31;100.00;101817.09;4976749;28;20040;-76
2023/05/14 12:04:06;;;;;;;7.45;5.60;;;;;;;18.41;100.00;101816.53;4977891;28;20935;-76
2023/05/14 12:06:51;;;;;;;7.13;5.55;;;;;;;18.44;100.00;101810.97;4965871;28;20056;-74
2023/05/14 12:09:40;;;;;;;11.63;5.82;;;;;;;18.61;100.00;101809.03;4977634;28;20144;-75
2023/05/14 12:12:24;;;;;;;8.27;6.25;;;;;;;18.63;100.00;101807.13;4965196;28;20100;-75
2023/05/14 12:15:12;;;;;;;8.00;5.65;;;;;;;18.71;100.00;101799.41;4973644;28;20061;-75
2023/05/14 12:17:56;;;;;;;7.07;5.13;;;;;;;18.73;100.00;101805.53;4991348;28;20144;-74
2023/05/14 12:20:46;;;;;;;9.73;5.43;;;;;;;18.79;100.00;101797.09;4977871;28;20544;-75
2023/05/14 12:23:31;;;;;;;6.43;5.20;;;;;;;18.91;100.00;101789.22;4974929;28;20104;-76
2023/05/14 12:26:15;;;;;;;10.70;5.93;;;;;;;18.92;100.00;101785.56;4976495;28;20080;-74
2023/05/14 12:29:00;;;;;;;8.18;5.35;;;;;;;19.00;100.00;101783.22;4976960;28;20131;-74
2023/05/14 12:31:46;;;;;;;6.70;5.72;;;;;;;19.00;100.00;101799.31;4975734;28;20057;-74
2023/05/14 12:34:30;;;;;;;6.60;5.47;;;;;;;18.92;100.00;101790.94;4975862;28;20543;-74
2023/05/14 12:37:14;;;;;;;8.45;5.97;;;;;;;18.87;100.00;101786.72;4976008;28;20193;-75
2023/05/14 12:40:02;;;;;;;6.95;5.40;;;;;;;18.98;100.00;101787.84;4974495;28;20057;-75